Terminal Aerodrome Forecast
Issued by NWS

Home | Current Version | Previous Version | Text Only | Print | Product List | Glossary On
Versions: 1 2 3 4 5 6 7 8 9 10 11 12 13 14 15 16
000
FTUS45 KGJT 242343
TAFMTJ
TAF
KMTJ 242343Z 2500/2524 30004KT P6SM SCT050 OVC080
     FM250130 34008G15KT P6SM VCSH SCT050 BKN070
      TEMPO 2502/2503 -SHRA BKN050
     FM250300 11008KT P6SM VCSH SCT050 BKN110
     FM250600 15004KT P6SM SKC
     FM251500 00000KT P6SM SKC
     FM252000 32006KT P6SM SKC=

USA.gov is the U.S. government's official web portal to all federal, state and local government web resources and services.